Time;durP1;ratioP1;P1;durP2;ratioP2;P2;SDS_P1;SDS_P2;PMS_P1;PMS_P2;Temp;Humidity;BMP_temperature;BMP_pressure;BME280_temperature;BME280_humidity;BME280_pressure;Samples;Min_cycle;Max_cycle;Signal;HPM_P1;HPM_P2
2022/07/25 00:02:28;;;;;;;1999.90;999.90;;;;;;;18.19;70.25;98973.31;8191422;28;20051;-81
2022/07/25 00:06:29;;;;;;;1999.90;999.90;;;;;;;18.17;70.54;98973.38;8190092;28;20047;-80
2022/07/25 00:10:31;;;;;;;1999.90;999.90;;;;;;;18.10;70.59;98969.28;8186635;28;20086;-80
2022/07/25 00:14:32;;;;;;;1999.90;999.90;;;;;;;18.03;71.70;98960.81;8191423;28;20210;-80
2022/07/25 00:18:34;;;;;;;1999.90;999.90;;;;;;;17.96;71.76;98958.53;8187528;28;20070;-80
2022/07/25 00:22:35;;;;;;;1999.90;999.90;;;;;;;17.90;72.38;98958.75;8184589;28;20172;-81
2022/07/25 00:26:37;;;;;;;1999.90;999.90;;;;;;;17.79;72.37;98951.34;8201892;28;20085;-80
2022/07/25 00:30:41;;;;;;;1999.90;999.90;;;;;;;17.73;72.37;98949.78;8180879;28;20289;-80
2022/07/25 00:34:42;;;;;;;1999.90;999.90;;;;;;;17.71;72.50;98948.16;8201262;28;20082;-80
2022/07/25 00:38:44;;;;;;;1999.90;999.90;;;;;;;17.69;72.91;98956.09;8199993;28;20293;-80
2022/07/25 00:42:45;;;;;;;1999.90;999.90;;;;;;;17.66;73.49;98960.56;8190352;28;20050;-79
2022/07/25 00:46:47;;;;;;;1999.90;999.90;;;;;;;17.64;73.14;98955.38;8191990;28;20043;-80
2022/07/25 00:50:50;;;;;;;1999.90;999.90;;;;;;;17.64;74.45;98950.13;8190014;28;20047;-80
2022/07/25 00:54:51;;;;;;;1999.90;999.90;;;;;;;17.59;75.13;98946.81;8200641;28;20615;-81
2022/07/25 00:58:53;;;;;;;1999.90;999.90;;;;;;;17.56;75.47;98935.59;8201918;28;20051;-80
2022/07/25 01:02:55;;;;;;;1999.90;999.90;;;;;;;17.50;74.78;98934.06;8207115;28;20529;-80
2022/07/25 01:06:57;;;;;;;1999.90;999.90;;;;;;;17.44;74.85;98934.34;8168160;29;20075;-81
2022/07/25 01:10:59;;;;;;;1999.90;999.90;;;;;;;17.40;74.89;98935.34;8202389;28;20493;-81
2022/07/25 01:15:00;;;;;;;1999.90;999.90;;;;;;;17.34;75.46;98927.72;8196661;28;20051;-80
2022/07/25 01:19:02;;;;;;;1999.90;999.90;;;;;;;17.29;75.73;98927.06;8183054;28;20055;-80
2022/07/25 01:23:03;;;;;;;1999.90;999.90;;;;;;;17.16;76.02;98917.03;8178249;28;20377;-81
2022/07/25 01:27:05;;;;;;;1999.90;999.90;;;;;;;17.18;76.31;98912.56;8191335;28;20051;-80
2022/07/25 01:31:08;;;;;;;1999.90;999.90;;;;;;;17.15;76.73;98911.84;8191762;28;20871;-81
2022/07/25 01:35:11;;;;;;;1999.90;999.90;;;;;;;17.14;76.80;98908.38;8195286;28;20055;-80
2022/07/25 01:39:12;;;;;;;1999.90;999.90;;;;;;;17.11;76.42;98908.50;8191693;28;20052;-80
2022/07/25 01:43:14;;;;;;;1999.90;999.90;;;;;;;16.91;77.17;98914.50;8186356;28;20342;-80
2022/07/25 01:47:16;;;;;;;1999.90;999.90;;;;;;;16.88;77.47;98906.75;8190992;28;20138;-80
2022/07/25 01:51:18;;;;;;;1999.90;999.90;;;;;;;16.88;77.92;98914.63;8183229;28;20704;-80
2022/07/25 01:55:21;;;;;;;1999.90;999.90;;;;;;;16.86;77.65;98907.69;8179356;28;20051;-80
2022/07/25 01:59:22;;;;;;;1999.90;999.90;;;;;;;16.79;77.69;98907.09;8182786;28;20043;-80
2022/07/25 02:03:30;;;;;;;1999.90;999.90;;;;;;;16.66;78.57;98911.03;8184711;28;20059;-80
2022/07/25 02:07:31;;;;;;;1999.90;999.90;;;;;;;16.70;78.82;98910.06;8190951;28;20047;-80
2022/07/25 02:11:34;;;;;;;1999.90;999.90;;;;;;;16.71;79.49;98905.66;8183172;28;20047;-79
2022/07/25 02:15:35;;;;;;;1999.90;999.90;;;;;;;16.70;79.77;98906.59;8188308;28;20050;-80
2022/07/25 02:19:37;;;;;;;1999.90;999.90;;;;;;;16.65;79.52;98900.59;8198977;28;20074;-80
2022/07/25 02:23:39;;;;;;;1999.90;999.90;;;;;;;16.60;79.60;98895.53;8185733;28;20067;-80
2022/07/25 02:27:41;;;;;;;1999.90;999.90;;;;;;;16.59;79.13;98899.06;8203258;28;20429;-80
2022/07/25 02:31:42;;;;;;;1999.90;999.90;;;;;;;16.52;80.05;98885.34;8191999;28;20500;-79
2022/07/25 02:35:44;;;;;;;1999.90;999.90;;;;;;;16.45;79.74;98880.38;8195028;28;20062;-80
2022/07/25 02:39:45;;;;;;;1999.90;999.90;;;;;;;16.38;79.66;98878.88;8186441;28;20126;-80
2022/07/25 02:43:47;;;;;;;1999.90;999.90;;;;;;;16.37;79.65;98879.81;8210865;28;20067;-79
2022/07/25 02:47:49;;;;;;;1999.90;999.90;;;;;;;16.30;80.18;98876.53;8185000;28;20294;-79
2022/07/25 02:51:50;;;;;;;1999.90;999.90;;;;;;;16.29;80.48;98869.56;8202916;28;20300;-80
2022/07/25 02:55:53;;;;;;;1999.90;999.90;;;;;;;16.25;80.49;98871.47;8189529;28;20058;-80
2022/07/25 02:59:57;;;;;;;1999.90;999.90;;;;;;;16.26;80.41;98859.22;8198765;28;20372;-80
2022/07/25 03:03:58;;;;;;;1999.90;999.90;;;;;;;16.28;80.10;98862.63;8192862;28;20058;-80
2022/07/25 03:08:00;;;;;;;1999.90;999.90;;;;;;;16.20;80.05;98859.44;8198478;28;20039;-80
2022/07/25 03:12:03;;;;;;;1999.90;999.90;;;;;;;16.11;80.67;98851.91;8196284;28;20047;-81
2022/07/25 03:16:04;;;;;;;1999.90;999.90;;;;;;;16.14;81.10;98850.00;8178116;28;20070;-80
2022/07/25 03:20:08;;;;;;;1999.90;999.90;;;;;;;16.15;81.06;98854.34;8200752;28;20054;-80
2022/07/25 03:24:10;;;;;;;1999.90;999.90;;;;;;;16.11;80.96;98846.66;8184662;28;20507;-80
2022/07/25 03:28:12;;;;;;;1999.90;999.90;;;;;;;16.10;81.19;98848.41;8181259;28;20075;-80
2022/07/25 03:32:13;;;;;;;1999.90;999.90;;;;;;;16.06;81.14;98840.75;8185487;28;20067;-79
2022/07/25 03:36:15;;;;;;;1999.90;999.90;;;;;;;16.05;81.10;98846.88;8188448;28;20051;-80
2022/07/25 03:40:17;;;;;;;1999.90;999.90;;;;;;;15.99;81.14;98840.09;8186608;28;20044;-80
2022/07/25 03:44:20;;;;;;;1999.90;999.90;;;;;;;15.91;81.22;98849.97;8199441;28;20039;-80
2022/07/25 03:48:22;;;;;;;1999.90;999.90;;;;;;;15.89;81.34;98846.56;8207324;28;20063;-80
2022/07/25 03:52:23;;;;;;;1999.90;999.90;;;;;;;15.84;82.02;98840.63;8195353;28;20127;-80
2022/07/25 03:56:30;;;;;;;1999.90;999.90;;;;;;;15.80;82.40;98844.25;8195373;28;20074;-79
2022/07/25 04:00:31;;;;;;;1999.90;999.90;;;;;;;15.84;82.81;98841.50;8189647;28;20047;-79
2022/07/25 04:04:34;;;;;;;1999.90;999.90;;;;;;;15.86;82.89;98839.66;8194929;28;20043;-80
2022/07/25 04:08:36;;;;;;;1999.90;999.90;;;;;;;15.83;83.34;98828.47;8189008;28;20109;-80
2022/07/25 04:12:38;;;;;;;1999.90;999.90;;;;;;;15.84;83.75;98819.69;8199798;28;20044;-80
2022/07/25 04:16:40;;;;;;;1999.90;999.90;;;;;;;15.83;83.70;98823.22;8188501;28;20074;-80
2022/07/25 04:20:42;;;;;;;1999.90;999.90;;;;;;;15.82;83.44;98816.28;8186210;28;20039;-80
2022/07/25 04:24:43;;;;;;;1999.90;999.90;;;;;;;15.78;83.10;98835.59;8209134;28;20142;-80
2022/07/25 04:28:45;;;;;;;1999.90;999.90;;;;;;;15.76;84.28;98835.66;8182073;28;20304;-80
2022/07/25 04:32:47;;;;;;;1999.90;999.90;;;;;;;15.80;84.01;98833.78;8195924;28;20054;-80
2022/07/25 04:36:49;;;;;;;1999.90;999.90;;;;;;;15.92;83.62;98830.75;8197447;28;20113;-79
2022/07/25 04:40:50;;;;;;;1999.90;999.90;;;;;;;16.04;83.34;98825.09;8186505;28;20293;-80
2022/07/25 04:44:52;;;;;;;1999.90;999.90;;;;;;;16.19;84.20;98807.97;8193090;28;20059;-78
2022/07/25 04:48:54;;;;;;;1999.90;999.90;;;;;;;16.35;83.25;98816.13;8185929;28;20051;-80
2022/07/25 04:52:56;;;;;;;1999.90;999.90;;;;;;;16.38;82.39;98821.25;8198703;28;20058;-79
2022/07/25 04:56:57;;;;;;;1999.90;999.90;;;;;;;16.45;81.80;98822.72;8192606;28;20042;-80
2022/07/25 05:00:59;;;;;;;1999.90;999.90;;;;;;;16.67;81.47;98817.53;8200016;28;20163;-79
2022/07/25 05:05:01;;;;;;;1999.90;999.90;;;;;;;16.83;81.71;98819.50;8191576;28;20337;-79
2022/07/25 05:09:03;;;;;;;1999.90;999.90;;;;;;;17.01;81.26;98819.69;8202950;28;20453;-80
2022/07/25 05:13:05;;;;;;;1999.90;999.90;;;;;;;17.19;79.50;98817.19;8195429;28;20044;-80
2022/07/25 05:17:06;;;;;;;1999.90;999.90;;;;;;;17.41;78.75;98817.16;8191177;28;20058;-79
2022/07/25 05:21:12;;;;;;;1999.90;999.90;;;;;;;17.61;78.40;98808.50;8184789;28;20924;-81
2022/07/25 05:25:29;;;;;;;1999.90;999.90;;;;;;;17.84;76.47;98802.28;8194224;28;20059;-79
2022/07/25 05:29:31;;;;;;;1999.90;999.90;;;;;;;18.10;75.59;98796.72;8179714;28;20058;-78
2022/07/25 05:33:33;;;;;;;1999.90;999.90;;;;;;;18.38;74.88;98792.88;8194518;28;20507;-79
2022/07/25 05:37:35;;;;;;;1999.90;999.90;;;;;;;18.63;74.33;98790.84;8189195;28;20043;-79
2022/07/25 05:41:37;;;;;;;1999.90;999.90;;;;;;;18.92;72.82;98793.88;8200480;28;20094;-80
2022/07/25 05:45:40;;;;;;;1999.90;999.90;;;;;;;19.20;71.56;98788.97;8204245;28;20054;-79
2022/07/25 05:49:41;;;;;;;1999.90;999.90;;;;;;;19.52;70.22;98794.41;8202531;28;20058;-79
2022/07/25 05:53:43;;;;;;;;;;;;;;;19.91;69.54;98784.50;8194243;28;20130;-79
2022/07/25 05:57:44;;;;;;;1999.90;999.90;;;;;;;20.36;68.75;98795.34;8188844;28;20017;-79
2022/07/25 06:01:46;;;;;;;1999.90;999.90;;;;;;;20.96;65.84;98790.28;8189564;28;20066;-79
2022/07/25 06:05:48;;;;;;;1999.90;999.90;;;;;;;21.63;63.52;98799.66;8186004;28;20709;-79
2022/07/25 06:09:49;;;;;;;1999.90;999.90;;;;;;;22.31;61.59;98795.53;8180175;28;20054;-80
2022/07/25 06:13:51;;;;;;;1999.90;999.90;;;;;;;22.99;59.59;98799.25;8190939;28;20071;-80
2022/07/25 06:17:53;;;;;;;;;;;;;;;23.63;57.57;98790.56;8186798;28;20110;-78
2022/07/25 06:21:55;;;;;;;1999.90;999.90;;;;;;;24.30;55.50;98790.41;8191132;28;19937;-79
2022/07/25 06:25:56;;;;;;;1999.90;999.90;;;;;;;24.95;53.73;98787.50;8191018;28;20131;-79
2022/07/25 06:29:58;;;;;;;1999.90;999.90;;;;;;;25.58;52.63;98787.22;8190935;28;20119;-79
2022/07/25 06:34:00;;;;;;;1999.90;999.90;;;;;;;26.18;48.00;98791.47;8182016;28;20058;-79
2022/07/25 06:38:01;;;;;;;;;;;;;;;26.67;46.80;98782.31;8189559;28;20073;-79
2022/07/25 06:42:03;;;;;;;1999.90;999.90;;;;;;;27.22;46.40;98785.84;8185263;28;19926;-79
2022/07/25 06:46:05;;;;;;;1999.90;999.90;;;;;;;27.68;45.88;98779.38;8189960;28;20055;-77
2022/07/25 06:50:08;;;;;;;1999.90;999.90;;;;;;;28.00;45.23;98782.81;8184114;28;20873;-80
2022/07/25 06:54:14;;;;;;;1999.90;999.90;;;;;;;28.28;43.61;98786.66;8187048;28;20070;-79
2022/07/25 06:58:15;;;;;;;1999.90;999.90;;;;;;;28.52;43.85;98788.16;8181708;28;20167;-79
2022/07/25 07:02:23;;;;;;;1999.90;999.90;;;;;;;28.65;43.25;98783.44;8174967;28;20092;-79
2022/07/25 07:06:24;;;;;;;1999.90;999.90;;;;;;;28.68;42.93;98777.81;8193630;28;20134;-78
2022/07/25 07:10:27;;;;;;;1999.90;999.90;;;;;;;28.88;43.24;98773.38;8173840;28;20051;-78
2022/07/25 07:14:28;;;;;;;1999.90;999.90;;;;;;;29.08;42.80;98775.09;8189417;28;20134;-78
2022/07/25 07:18:30;;;;;;;1999.90;999.90;;;;;;;29.15;41.57;98772.72;8184096;28;20094;-79
2022/07/25 07:22:41;;;;;;;1999.90;999.90;;;;;;;29.38;41.39;98768.78;8197285;28;20509;-79
2022/07/25 07:26:43;;;;;;;1999.90;999.90;;;;;;;29.57;41.07;98767.13;8182742;28;20056;-79
2022/07/25 07:30:45;;;;;;;1999.90;999.90;;;;;;;29.88;40.40;98763.28;8180687;28;20055;-80
2022/07/25 07:35:06;;;;;;;1999.90;999.90;;;;;;;30.06;39.55;98760.72;8192777;28;20051;-80
2022/07/25 07:39:08;;;;;;;1999.90;999.90;;;;;;;30.35;40.20;98755.28;8196354;28;20483;-79
2022/07/25 07:43:10;;;;;;;1999.90;999.90;;;;;;;30.52;38.04;98750.94;8194617;28;20055;-79
2022/07/25 07:47:12;;;;;;;1999.90;999.90;;;;;;;30.76;39.42;98743.25;8199785;28;20139;-78
2022/07/25 07:51:16;;;;;;;1999.90;999.90;;;;;;;30.60;37.84;98743.03;8192604;28;20051;-79
2022/07/25 07:59:39;;;;;;;1999.90;999.90;;;;;;;31.02;37.25;98737.13;8211898;28;20138;-79
2022/07/25 08:03:40;;;;;;;1999.90;999.90;;;;;;;30.79;37.91;98736.72;8212737;28;20059;-79
2022/07/25 08:07:42;;;;;;;1999.90;999.90;;;;;;;30.17;37.69;98741.81;8189876;28;20499;-80
2022/07/25 08:11:43;;;;;;;1999.90;999.90;;;;;;;29.71;39.14;98737.25;8186267;28;20465;-80
2022/07/25 08:15:47;;;;;;;1999.90;999.90;;;;;;;29.86;39.71;98743.84;8197806;28;20062;-79
2022/07/25 08:19:49;;;;;;;1999.90;999.90;;;;;;;30.44;38.88;98737.47;8199664;28;20039;-79
2022/07/25 08:23:51;;;;;;;1999.90;999.90;;;;;;;30.97;38.36;98740.28;8190912;28;20042;-79
2022/07/25 08:27:53;;;;;;;1999.90;999.90;;;;;;;31.57;38.17;98727.09;8191567;28;20047;-79
2022/07/25 08:31:54;;;;;;;1999.90;999.90;;;;;;;32.09;36.60;98727.13;8199336;28;20146;-78
2022/07/25 08:35:57;;;;;;;1999.90;999.90;;;;;;;32.44;35.13;98718.94;8193700;28;20717;-80
2022/07/25 08:39:59;;;;;;;1999.90;999.90;;;;;;;32.55;34.74;98717.81;8186267;28;20055;-79
2022/07/25 08:44:01;;;;;;;1999.90;999.90;;;;;;;32.32;34.88;98714.03;8216811;28;20047;-79
2022/07/25 08:48:04;;;;;;;1999.90;999.90;;;;;;;32.38;34.50;98722.28;8201539;28;20070;-79
2022/07/25 08:52:07;;;;;;;1999.90;999.90;;;;;;;32.27;35.07;98717.19;8193084;28;20503;-79
2022/07/25 08:56:09;;;;;;;1999.90;999.90;;;;;;;32.65;34.68;98720.34;8190812;28;20047;-79
2022/07/25 09:00:19;;;;;;;1999.90;999.90;;;;;;;32.89;34.17;98716.94;8196560;28;20054;-79
2022/07/25 09:04:20;;;;;;;1999.90;999.90;;;;;;;33.18;35.41;98722.66;8203383;28;20435;-78
2022/07/25 09:08:22;;;;;;;1999.90;999.90;;;;;;;33.52;33.18;98709.06;8190004;28;20485;-79
2022/07/25 09:12:26;;;;;;;1999.90;999.90;;;;;;;33.58;33.34;98703.03;8167631;29;20504;-79
2022/07/25 09:16:29;;;;;;;1999.90;999.90;;;;;;;33.73;34.26;98697.78;8187412;28;20051;-79
2022/07/25 09:21:00;;;;;;;1999.90;999.90;;;;;;;33.92;33.89;98712.75;8195077;28;20040;-79
2022/07/25 09:25:02;;;;;;;1999.90;999.90;;;;;;;33.83;32.45;98708.38;8175595;28;20641;-79
2022/07/25 09:29:03;;;;;;;1999.90;999.90;;;;;;;33.56;32.49;98699.66;8191272;28;20390;-80
2022/07/25 09:33:05;;;;;;;1999.90;999.90;;;;;;;33.37;32.94;98710.75;8185629;28;20080;-79
2022/07/25 09:37:11;;;;;;;1999.90;999.90;;;;;;;33.09;32.50;98715.59;8199151;28;20058;-80
2022/07/25 09:41:13;;;;;;;1999.90;999.90;;;;;;;32.83;33.51;98717.56;8191980;28;20468;-79
2022/07/25 09:45:14;;;;;;;1999.90;999.90;;;;;;;32.58;32.29;98714.78;8197495;28;20067;-79
2022/07/25 09:49:16;;;;;;;1999.90;999.90;;;;;;;32.57;33.13;98715.78;8186369;28;20489;-79
2022/07/25 09:53:18;;;;;;;1999.90;999.90;;;;;;;32.36;33.23;98710.00;8193155;28;20117;-79
2022/07/25 09:57:22;;;;;;;1999.90;999.90;;;;;;;32.38;32.45;98713.38;8196558;28;20469;-79
2022/07/25 10:01:33;;;;;;;1999.90;999.90;;;;;;;32.52;33.44;98711.91;8186232;28;20087;-79
2022/07/25 10:05:45;;;;;;;1999.90;999.90;;;;;;;32.56;33.05;98706.03;8209978;28;20046;-79
2022/07/25 10:09:48;;;;;;;1999.90;999.90;;;;;;;32.68;32.97;98699.38;8209265;28;20054;-79
2022/07/25 10:13:51;;;;;;;1999.90;999.90;;;;;;;32.66;32.87;98692.44;8213984;28;21054;-79
2022/07/25 10:18:05;;;;;;;1999.90;999.90;;;;;;;32.80;32.74;98690.97;8191833;28;20047;-79
2022/07/25 10:22:07;;;;;;;1999.90;999.90;;;;;;;33.32;31.45;98697.81;8209449;28;20048;-79
2022/07/25 10:26:15;;;;;;;1999.90;999.90;;;;;;;33.78;32.53;98695.44;8188982;28;20433;-79
2022/07/25 10:30:24;;;;;;;1999.90;999.90;;;;;;;34.48;31.28;98687.50;8178078;28;20724;-80
2022/07/25 10:34:29;;;;;;;1999.90;999.90;;;;;;;34.61;28.88;98686.91;8185079;28;20090;-79
2022/07/25 10:38:32;;;;;;;1999.90;999.90;;;;;;;34.13;29.78;98698.75;8188770;28;20120;-79
2022/07/25 10:42:33;;;;;;;1999.90;999.90;;;;;;;33.78;30.65;98708.91;8192338;28;20106;-79
2022/07/25 10:46:35;;;;;;;1999.90;999.90;;;;;;;33.58;30.60;98713.81;8192145;28;20046;-78
2022/07/25 10:51:02;;;;;;;1999.90;999.90;;;;;;;33.54;30.30;98698.97;8190140;28;20071;-79
2022/07/25 10:55:05;;;;;;;1999.90;999.90;;;;;;;33.58;30.48;98707.59;8209682;28;20051;-79
2022/07/25 10:59:06;;;;;;;1999.90;999.90;;;;;;;33.43;30.55;98715.50;8200908;28;20138;-80
2022/07/25 11:03:09;;;;;;;1999.90;999.90;;;;;;;33.20;30.73;98699.13;8178070;28;20083;-79
2022/07/25 11:07:17;;;;;;;1999.90;999.90;;;;;;;33.06;31.16;98702.50;8200939;28;20489;-80
2022/07/25 11:11:19;;;;;;;1999.90;999.90;;;;;;;32.89;30.93;98698.09;8185481;28;20077;-79
2022/07/25 11:15:22;;;;;;;1999.90;999.90;;;;;;;32.97;31.82;98700.78;8187137;28;20457;-79
2022/07/25 11:19:26;;;;;;;1999.90;999.90;;;;;;;33.21;31.40;98703.50;8188420;28;20163;-79
2022/07/25 11:23:28;;;;;;;1999.90;999.90;;;;;;;33.09;31.17;98704.00;8202523;28;20036;-79
2022/07/25 11:27:32;;;;;;;1999.90;999.90;;;;;;;33.11;32.31;98701.97;8185357;28;20489;-79
2022/07/25 11:31:34;;;;;;;1999.90;999.90;;;;;;;33.14;31.28;98698.97;8185782;28;20051;-79
2022/07/25 11:35:36;;;;;;;1999.90;999.90;;;;;;;33.25;31.92;98702.16;8186535;28;20059;-79
2022/07/25 11:39:40;;;;;;;1999.90;999.90;;;;;;;33.12;33.26;98699.13;8171495;28;20090;-79
2022/07/25 11:43:47;;;;;;;1999.90;999.90;;;;;;;32.87;33.24;98703.66;8193226;28;20047;-79
2022/07/25 11:48:12;;;;;;;1999.90;999.90;;;;;;;32.73;34.14;98698.88;8188210;28;20449;-79
2022/07/25 11:52:22;;;;;;;1999.90;999.90;;;;;;;32.70;35.09;98704.59;8180882;28;20047;-79
2022/07/25 11:56:24;;;;;;;1999.90;999.90;;;;;;;32.53;33.54;98697.47;8199641;28;20081;-79
2022/07/25 12:00:46;;;;;;;1999.90;999.90;;;;;;;32.47;34.46;98691.72;8185556;28;20099;-79
2022/07/25 12:04:56;;;;;;;1999.90;999.90;;;;;;;32.42;34.91;98682.47;8166302;28;20610;-79
2022/07/25 12:09:09;;;;;;;1999.90;999.90;;;;;;;32.72;33.77;98692.66;8196998;28;20044;-79
2022/07/25 12:13:29;;;;;;;1999.90;999.90;;;;;;;32.97;33.67;98682.78;8180189;28;20516;-79
2022/07/25 12:17:30;;;;;;;1999.90;999.90;;;;;;;33.13;31.65;98684.66;8202739;28;20297;-80
2022/07/25 12:21:32;;;;;;;1999.90;999.90;;;;;;;32.99;31.54;98685.31;8199471;28;20083;-78
2022/07/25 12:25:36;;;;;;;1999.90;999.90;;;;;;;33.16;32.63;98689.72;8181716;28;20061;-78
2022/07/25 12:29:38;;;;;;;1999.90;999.90;;;;;;;33.46;31.39;98699.00;8200733;28;20428;-79
2022/07/25 12:33:40;;;;;;;1999.90;999.90;;;;;;;33.71;31.24;98694.41;8178489;28;20142;-79
2022/07/25 12:37:42;;;;;;;1999.90;999.90;;;;;;;33.82;30.65;98707.53;8196572;28;20395;-79
2022/07/25 12:41:44;;;;;;;1999.90;999.90;;;;;;;34.09;30.69;98710.84;8201303;28;20043;-79
2022/07/25 12:45:46;;;;;;;1999.90;999.90;;;;;;;34.21;31.20;98710.31;8202060;28;20051;-79
2022/07/25 12:49:47;;;;;;;1999.90;999.90;;;;;;;34.43;30.30;98711.44;8187461;28;20098;-79
2022/07/25 12:53:49;;;;;;;1999.90;999.90;;;;;;;34.52;29.38;98720.34;8178164;28;20052;-79
2022/07/25 12:57:51;;;;;;;1999.90;999.90;;;;;;;34.52;29.93;98707.69;8179531;28;20054;-79
2022/07/25 13:01:52;;;;;;;1999.90;999.90;;;;;;;34.61;29.56;98727.34;8186256;28;20149;-78
2022/07/25 13:05:54;;;;;;;1999.90;999.90;;;;;;;34.74;29.31;98718.69;8182317;28;20051;-79
2022/07/25 13:09:55;;;;;;;1999.90;999.90;;;;;;;34.52;28.80;98721.19;8171910;28;20150;-79
2022/07/25 13:13:57;;;;;;;1999.90;999.90;;;;;;;34.67;29.51;98728.53;8186225;28;20954;-79
2022/07/25 13:18:01;;;;;;;1999.90;999.90;;;;;;;34.66;29.33;98741.19;8189210;28;20925;-79
2022/07/25 13:22:03;;;;;;;1999.90;999.90;;;;;;;34.49;29.12;98731.47;8195682;28;20077;-80
2022/07/25 13:26:05;;;;;;;1999.90;999.90;;;;;;;34.60;28.58;98741.88;8189028;28;20058;-80
2022/07/25 13:30:13;;;;;;;1999.90;999.90;;;;;;;34.51;28.86;98743.78;8213333;28;20093;-81
2022/07/25 13:34:22;;;;;;;1999.90;999.90;;;;;;;34.19;29.57;98760.03;8194233;28;20111;-80
2022/07/25 13:38:26;;;;;;;1999.90;999.90;;;;;;;33.75;29.81;98770.31;8204070;28;20051;-79
2022/07/25 13:42:27;;;;;;;1999.90;999.90;;;;;;;33.77;30.51;98752.16;8189050;28;20106;-80
2022/07/25 13:46:31;;;;;;;1999.90;999.90;;;;;;;33.73;30.76;98775.03;8189069;28;20507;-81
2022/07/25 13:50:33;;;;;;;1999.90;999.90;;;;;;;33.38;30.66;98790.50;8186348;28;20048;-80
2022/07/25 13:54:47;;;;;;;1999.90;999.90;;;;;;;33.00;30.55;98791.91;8188973;28;20043;-79
2022/07/25 13:58:48;;;;;;;1999.90;999.90;;;;;;;32.39;30.75;98801.91;8179403;28;20162;-79
2022/07/25 14:02:50;;;;;;;1999.90;999.90;;;;;;;32.01;32.25;98794.25;8169237;28;20055;-79
2022/07/25 14:06:52;;;;;;;1999.90;999.90;;;;;;;31.86;33.55;98810.94;8175492;28;20044;-79
2022/07/25 14:10:53;;;;;;;1999.90;999.90;;;;;;;31.51;32.67;98787.63;8178082;28;20035;-78
2022/07/25 14:14:55;;;;;;;1999.90;999.90;;;;;;;31.41;33.12;98789.53;8185358;28;20049;-78
2022/07/25 14:18:56;;;;;;;1999.90;999.90;;;;;;;31.68;33.36;98801.19;8198108;28;20132;-79
2022/07/25 14:22:58;;;;;;;1999.90;999.90;;;;;;;31.69;32.33;98800.19;8176313;28;20938;-79
2022/07/25 14:26:59;;;;;;;1999.90;999.90;;;;;;;31.93;32.07;98802.22;8171939;28;20139;-78
2022/07/25 14:31:01;;;;;;;1999.90;999.90;;;;;;;31.97;31.37;98819.75;8179702;28;20150;-79
2022/07/25 14:35:04;;;;;;;1999.90;999.90;;;;;;;32.05;30.79;98815.25;8189169;28;20159;-77
2022/07/25 14:39:06;;;;;;;1999.90;999.90;;;;;;;31.87;31.11;98819.81;8174847;28;20055;-78
2022/07/25 14:43:08;;;;;;;1999.90;999.90;;;;;;;32.08;31.10;98830.22;8192013;28;20126;-79
2022/07/25 14:47:10;;;;;;;1999.90;999.90;;;;;;;32.17;31.96;98822.06;8189002;28;20051;-80
2022/07/25 14:51:13;;;;;;;1999.90;999.90;;;;;;;32.22;31.05;98831.50;8172352;28;20058;-79
2022/07/25 14:55:14;;;;;;;1999.90;999.90;;;;;;;32.13;30.65;98839.47;8185737;28;20086;-79
2022/07/25 14:59:16;;;;;;;1999.90;999.90;;;;;;;31.97;31.86;98825.97;8181832;28;20040;-78
2022/07/25 15:03:18;;;;;;;1999.90;999.90;;;;;;;32.13;31.87;98836.78;8176140;28;20058;-79
2022/07/25 15:07:19;;;;;;;1999.90;999.90;;;;;;;32.20;30.96;98834.34;8182399;28;20051;-78
2022/07/25 15:11:21;;;;;;;1999.90;999.90;;;;;;;32.35;30.62;98832.78;8197488;28;20169;-77
2022/07/25 15:15:22;;;;;;;1999.90;999.90;;;;;;;32.63;30.91;98838.81;8177599;28;20944;-78
2022/07/25 15:19:24;;;;;;;1999.90;999.90;;;;;;;32.81;31.17;98848.69;8198601;28;20043;-78
2022/07/25 15:23:27;;;;;;;1999.90;999.90;;;;;;;32.96;30.01;98849.75;8196707;28;20379;-78
2022/07/25 15:27:31;;;;;;;1999.90;999.90;;;;;;;32.82;30.13;98844.97;8180592;28;20079;-77
2022/07/25 15:31:32;;;;;;;1999.90;999.90;;;;;;;32.80;29.08;98853.22;8190867;28;20063;-77
2022/07/25 15:35:34;;;;;;;1999.90;999.90;;;;;;;32.42;29.61;98847.28;8173960;28;20066;-76
2022/07/25 15:39:36;;;;;;;1999.90;999.90;;;;;;;32.02;29.98;98850.50;8187705;28;20134;-77
2022/07/25 15:43:38;;;;;;;1999.90;999.90;;;;;;;31.66;31.01;98860.41;8187065;28;20067;-77
2022/07/25 15:47:39;;;;;;;1999.90;999.90;;;;;;;31.74;31.65;98854.28;8181695;28;20691;-76
2022/07/25 15:51:41;;;;;;;1999.90;999.90;;;;;;;31.71;32.09;98863.47;8179709;28;20039;-77
2022/07/25 15:55:43;;;;;;;1999.90;999.90;;;;;;;31.79;30.96;98860.91;8181848;28;20481;-77
2022/07/25 15:59:44;;;;;;;1999.90;999.90;;;;;;;31.74;30.78;98871.22;8184674;28;20635;-77
2022/07/25 16:03:46;;;;;;;1999.90;999.90;;;;;;;31.49;30.70;98871.97;8178632;28;20082;-77
2022/07/25 16:07:48;;;;;;;1999.90;999.90;;;;;;;31.42;30.49;98869.06;8182088;28;20706;-76
2022/07/25 16:11:49;;;;;;;1999.90;999.90;;;;;;;31.62;30.05;98863.56;8198296;28;20504;-77
2022/07/25 16:15:51;;;;;;;1999.90;999.90;;;;;;;31.51;29.93;98878.03;8173098;28;20067;-76
2022/07/25 16:19:56;;;;;;;1999.90;999.90;;;;;;;31.31;29.96;98869.28;8176920;28;20371;-78
2022/07/25 16:23:58;;;;;;;1999.90;999.90;;;;;;;31.09;30.44;98864.28;8191133;28;20058;-77
2022/07/25 16:27:59;;;;;;;1999.90;999.90;;;;;;;30.74;31.21;98860.50;8184600;28;20122;-77
2022/07/25 16:32:01;;;;;;;1999.90;999.90;;;;;;;30.62;31.09;98864.34;8174294;28;20464;-77
2022/07/25 16:36:03;;;;;;;1999.90;999.90;;;;;;;30.35;31.50;98857.94;8193491;28;20106;-77
2022/07/25 16:40:06;;;;;;;1999.90;999.90;;;;;;;30.15;32.58;98871.47;8192427;28;20058;-78
2022/07/25 16:44:08;;;;;;;1999.90;999.90;;;;;;;29.73;32.89;98872.63;8180384;28;20624;-77
2022/07/25 16:48:10;;;;;;;1999.90;999.90;;;;;;;29.47;33.33;98874.16;8175782;28;20202;-77
2022/07/25 16:52:12;;;;;;;1999.90;999.90;;;;;;;29.21;34.20;98875.63;8175469;28;20047;-77
2022/07/25 16:56:15;;;;;;;1999.90;999.90;;;;;;;28.98;34.70;98869.66;8192458;28;20051;-77
2022/07/25 17:00:17;;;;;;;1999.90;999.90;;;;;;;28.76;35.11;98873.34;8179314;28;20051;-77
2022/07/25 17:04:18;;;;;;;1999.90;999.90;;;;;;;28.56;35.67;98883.09;8180501;28;20056;-76
2022/07/25 17:08:20;;;;;;;1999.90;999.90;;;;;;;28.48;36.12;98878.41;8184274;28;20043;-77
2022/07/25 17:12:21;;;;;;;;;;;;;;;28.40;36.95;98872.88;8176969;28;20092;-76
2022/07/25 17:16:23;;;;;;;1999.90;999.90;;;;;;;28.35;36.91;98877.75;8176085;28;19962;-76
2022/07/25 17:20:24;;;;;;;1999.90;999.90;;;;;;;28.31;37.32;98879.00;8182746;28;20178;-76
2022/07/25 17:24:26;;;;;;;1999.90;999.90;;;;;;;28.26;38.31;98887.41;8176040;28;20043;-77
2022/07/25 17:28:27;;;;;;;;;;;;;;;28.10;38.44;98892.31;8175990;28;20089;-77
2022/07/25 17:32:29;;;;;;;;;;;;;;;27.94;38.84;98900.78;8174578;28;19926;-76
2022/07/25 17:36:30;;;;;;;1999.90;999.90;;;;;;;27.84;39.52;98894.53;8173244;28;20371;-76
2022/07/25 17:40:32;;;;;;;1999.90;999.90;;;;;;;27.65;39.61;98889.88;8178677;28;20054;-76
2022/07/25 17:44:34;;;;;;;1999.90;999.90;;;;;;;27.53;39.82;98898.00;8174347;28;20400;-77
2022/07/25 17:48:36;;;;;;;1999.90;999.90;;;;;;;27.46;39.52;98905.63;8168415;28;20155;-77
2022/07/25 17:52:37;;;;;;;1999.90;999.90;;;;;;;27.37;40.17;98909.06;8188056;28;20070;-77
2022/07/25 17:56:39;;;;;;;1999.90;999.90;;;;;;;27.26;41.61;98917.91;8180239;28;20090;-77
2022/07/25 18:00:41;;;;;;;1999.90;999.90;;;;;;;27.13;42.01;98911.91;8191532;28;20142;-77
2022/07/25 18:04:42;;;;;;;;;;;;;;;26.99;42.52;98928.09;8198601;28;20051;-77
2022/07/25 18:08:44;;;;;;;1999.90;999.90;;;;;;;26.84;42.20;98924.84;8180071;28;19936;-77